sensor_id;sensor_type;location;lat;lon;timestamp;P1;durP1;ratioP1;P2;durP2;ratioP2
19727;SDS011;10015;52.530;13.390;2023-05-29T00:00:21;8.13;;;3.10;;
19727;SDS011;10015;52.530;13.390;2023-05-29T00:02:48;9.93;;;3.30;;
19727;SDS011;10015;52.530;13.390;2023-05-29T00:05:15;7.63;;;2.80;;
19727;SDS011;10015;52.530;13.390;2023-05-29T00:07:41;9.40;;;2.87;;
19727;SDS011;10015;52.530;13.390;2023-05-29T00:10:08;5.10;;;2.73;;
19727;SDS011;10015;52.530;13.390;2023-05-29T00:12:37;10.30;;;3.20;;
19727;SDS011;10015;52.530;13.390;2023-05-29T00:15:03;9.80;;;2.70;;
19727;SDS011;10015;52.530;13.390;2023-05-29T00:17:30;7.57;;;2.50;;
19727;SDS011;10015;52.530;13.390;2023-05-29T00:19:59;6.40;;;3.07;;
19727;SDS011;10015;52.530;13.390;2023-05-29T00:22:27;6.93;;;2.70;;
19727;SDS011;10015;52.530;13.390;2023-05-29T00:24:53;7.77;;;2.97;;
19727;SDS011;10015;52.530;13.390;2023-05-29T00:27:19;5.03;;;2.90;;
19727;SDS011;10015;52.530;13.390;2023-05-29T00:29:45;8.87;;;3.13;;
19727;SDS011;10015;52.530;13.390;2023-05-29T00:32:11;6.90;;;2.63;;
19727;SDS011;10015;52.530;13.390;2023-05-29T00:34:37;5.47;;;2.93;;
19727;SDS011;10015;52.530;13.390;2023-05-29T00:37:03;10.30;;;3.27;;
19727;SDS011;10015;52.530;13.390;2023-05-29T00:39:29;6.50;;;2.80;;
19727;SDS011;10015;52.530;13.390;2023-05-29T00:41:56;7.63;;;3.10;;
19727;SDS011;10015;52.530;13.390;2023-05-29T00:44:22;5.80;;;2.57;;
19727;SDS011;10015;52.530;13.390;2023-05-29T00:46:49;7.23;;;3.20;;
19727;SDS011;10015;52.530;13.390;2023-05-29T00:49:21;6.30;;;2.77;;
19727;SDS011;10015;52.530;13.390;2023-05-29T00:51:47;6.27;;;2.90;;
19727;SDS011;10015;52.530;13.390;2023-05-29T00:54:26;7.73;;;2.93;;
19727;SDS011;10015;52.530;13.390;2023-05-29T00:56:56;6.07;;;2.70;;
19727;SDS011;10015;52.530;13.390;2023-05-29T00:59:25;10.17;;;3.10;;
19727;SDS011;10015;52.530;13.390;2023-05-29T01:01:54;7.73;;;3.10;;
19727;SDS011;10015;52.530;13.390;2023-05-29T01:04:21;7.43;;;2.97;;
19727;SDS011;10015;52.530;13.390;2023-05-29T01:06:49;8.90;;;3.43;;
19727;SDS011;10015;52.530;13.390;2023-05-29T01:09:15;6.97;;;2.73;;
19727;SDS011;10015;52.530;13.390;2023-05-29T01:11:49;7.47;;;3.13;;
19727;SDS011;10015;52.530;13.390;2023-05-29T01:28:25;7.80;;;3.30;;
19727;SDS011;10015;52.530;13.390;2023-05-29T01:30:55;6.93;;;3.27;;
19727;SDS011;10015;52.530;13.390;2023-05-29T01:33:23;8.70;;;3.30;;
19727;SDS011;10015;52.530;13.390;2023-05-29T01:35:51;9.77;;;3.50;;
19727;SDS011;10015;52.530;13.390;2023-05-29T01:38:17;8.00;;;2.80;;
19727;SDS011;10015;52.530;13.390;2023-05-29T01:40:43;8.00;;;3.10;;
19727;SDS011;10015;52.530;13.390;2023-05-29T01:43:10;5.90;;;3.40;;
19727;SDS011;10015;52.530;13.390;2023-05-29T01:45:37;9.97;;;3.17;;
19727;SDS011;10015;52.530;13.390;2023-05-29T01:48:06;8.83;;;3.47;;
19727;SDS011;10015;52.530;13.390;2023-05-29T01:50:33;6.00;;;3.13;;
19727;SDS011;10015;52.530;13.390;2023-05-29T01:53:00;7.70;;;3.23;;
19727;SDS011;10015;52.530;13.390;2023-05-29T01:55:26;10.87;;;3.20;;
19727;SDS011;10015;52.530;13.390;2023-05-29T01:57:52;7.63;;;3.30;;
19727;SDS011;10015;52.530;13.390;2023-05-29T02:00:20;11.33;;;3.43;;
19727;SDS011;10015;52.530;13.390;2023-05-29T02:02:46;9.20;;;3.30;;
19727;SDS011;10015;52.530;13.390;2023-05-29T02:05:13;7.60;;;3.30;;
19727;SDS011;10015;52.530;13.390;2023-05-29T02:07:40;10.37;;;3.70;;
19727;SDS011;10015;52.530;13.390;2023-05-29T02:10:06;7.97;;;3.30;;
19727;SDS011;10015;52.530;13.390;2023-05-29T02:12:32;7.07;;;3.57;;
19727;SDS011;10015;52.530;13.390;2023-05-29T02:14:58;9.80;;;3.77;;
19727;SDS011;10015;52.530;13.390;2023-05-29T02:17:25;7.77;;;3.37;;
19727;SDS011;10015;52.530;13.390;2023-05-29T02:19:52;9.17;;;3.50;;
19727;SDS011;10015;52.530;13.390;2023-05-29T02:22:18;8.83;;;3.60;;
19727;SDS011;10015;52.530;13.390;2023-05-29T02:24:44;7.53;;;3.70;;
19727;SDS011;10015;52.530;13.390;2023-05-29T02:27:09;8.17;;;3.37;;
19727;SDS011;10015;52.530;13.390;2023-05-29T02:29:35;5.77;;;3.10;;
19727;SDS011;10015;52.530;13.390;2023-05-29T02:32:01;7.87;;;3.50;;
19727;SDS011;10015;52.530;13.390;2023-05-29T02:34:28;7.87;;;3.60;;
19727;SDS011;10015;52.530;13.390;2023-05-29T02:36:54;6.97;;;3.10;;
19727;SDS011;10015;52.530;13.390;2023-05-29T02:39:20;8.20;;;3.30;;
19727;SDS011;10015;52.530;13.390;2023-05-29T02:41:46;7.23;;;3.43;;
19727;SDS011;10015;52.530;13.390;2023-05-29T02:44:12;8.33;;;3.30;;
19727;SDS011;10015;52.530;13.390;2023-05-29T02:46:38;8.87;;;3.00;;
19727;SDS011;10015;52.530;13.390;2023-05-29T02:49:04;8.27;;;3.37;;
19727;SDS011;10015;52.530;13.390;2023-05-29T02:51:30;6.80;;;3.03;;
19727;SDS011;10015;52.530;13.390;2023-05-29T02:53:57;10.20;;;3.27;;
19727;SDS011;10015;52.530;13.390;2023-05-29T02:56:24;7.50;;;3.23;;
19727;SDS011;10015;52.530;13.390;2023-05-29T02:58:50;5.57;;;3.07;;
19727;SDS011;10015;52.530;13.390;2023-05-29T03:01:16;7.97;;;3.30;;
19727;SDS011;10015;52.530;13.390;2023-05-29T03:03:42;8.50;;;3.50;;
19727;SDS011;10015;52.530;13.390;2023-05-29T03:06:08;7.23;;;3.13;;
19727;SDS011;10015;52.530;13.390;2023-05-29T03:08:43;6.47;;;3.13;;
19727;SDS011;10015;52.530;13.390;2023-05-29T03:11:10;8.00;;;3.30;;
19727;SDS011;10015;52.530;13.390;2023-05-29T03:13:37;7.27;;;3.03;;
19727;SDS011;10015;52.530;13.390;2023-05-29T03:16:09;9.87;;;3.70;;
19727;SDS011;10015;52.530;13.390;2023-05-29T03:18:37;9.10;;;3.50;;
19727;SDS011;10015;52.530;13.390;2023-05-29T03:21:03;5.13;;;3.10;;
19727;SDS011;10015;52.530;13.390;2023-05-29T03:23:32;6.90;;;3.23;;
19727;SDS011;10015;52.530;13.390;2023-05-29T03:25:58;8.03;;;3.30;;
19727;SDS011;10015;52.530;13.390;2023-05-29T03:28:24;7.57;;;3.20;;
19727;SDS011;10015;52.530;13.390;2023-05-29T03:30:52;9.57;;;3.13;;
19727;SDS011;10015;52.530;13.390;2023-05-29T03:33:19;9.13;;;3.67;;
19727;SDS011;10015;52.530;13.390;2023-05-29T03:36:04;8.80;;;3.30;;
19727;SDS011;10015;52.530;13.390;2023-05-29T03:38:31;8.03;;;3.40;;
19727;SDS011;10015;52.530;13.390;2023-05-29T03:40:58;8.13;;;3.13;;
19727;SDS011;10015;52.530;13.390;2023-05-29T03:43:25;7.20;;;3.13;;
19727;SDS011;10015;52.530;13.390;2023-05-29T03:45:51;10.80;;;3.20;;
19727;SDS011;10015;52.530;13.390;2023-05-29T03:48:17;8.00;;;3.07;;
19727;SDS011;10015;52.530;13.390;2023-05-29T03:50:46;7.90;;;3.00;;
19727;SDS011;10015;52.530;13.390;2023-05-29T03:53:13;6.80;;;2.83;;
19727;SDS011;10015;52.530;13.390;2023-05-29T03:55:40;4.70;;;2.83;;
19727;SDS011;10015;52.530;13.390;2023-05-29T03:58:08;6.80;;;2.90;;
19727;SDS011;10015;52.530;13.390;2023-05-29T04:00:34;6.17;;;3.03;;
19727;SDS011;10015;52.530;13.390;2023-05-29T04:03:01;11.47;;;3.73;;
19727;SDS011;10015;52.530;13.390;2023-05-29T04:05:27;8.33;;;3.40;;
19727;SDS011;10015;52.530;13.390;2023-05-29T04:07:53;5.70;;;2.90;;
19727;SDS011;10015;52.530;13.390;2023-05-29T04:10:19;6.60;;;3.13;;
19727;SDS011;10015;52.530;13.390;2023-05-29T04:12:45;5.17;;;2.80;;
19727;SDS011;10015;52.530;13.390;2023-05-29T04:15:11;5.00;;;2.90;;
19727;SDS011;10015;52.530;13.390;2023-05-29T04:17:37;5.30;;;3.03;;
19727;SDS011;10015;52.530;13.390;2023-05-29T04:20:04;5.43;;;2.83;;
19727;SDS011;10015;52.530;13.390;2023-05-29T04:22:34;7.30;;;3.03;;
19727;SDS011;10015;52.530;13.390;2023-05-29T04:25:01;5.90;;;2.93;;
19727;SDS011;10015;52.530;13.390;2023-05-29T04:27:32;8.07;;;2.97;;
19727;SDS011;10015;52.530;13.390;2023-05-29T04:30:04;6.90;;;3.13;;
19727;SDS011;10015;52.530;13.390;2023-05-29T04:32:36;6.90;;;2.77;;
19727;SDS011;10015;52.530;13.390;2023-05-29T04:35:02;5.93;;;3.20;;
19727;SDS011;10015;52.530;13.390;2023-05-29T04:37:31;5.03;;;2.63;;
19727;SDS011;10015;52.530;13.390;2023-05-29T04:40:07;7.67;;;2.93;;
19727;SDS011;10015;52.530;13.390;2023-05-29T04:42:36;6.57;;;2.80;;
19727;SDS011;10015;52.530;13.390;2023-05-29T04:45:05;5.90;;;2.80;;
19727;SDS011;10015;52.530;13.390;2023-05-29T04:47:34;4.93;;;2.73;;
19727;SDS011;10015;52.530;13.390;2023-05-29T04:50:02;5.47;;;2.60;;
19727;SDS011;10015;52.530;13.390;2023-05-29T04:52:28;5.97;;;2.77;;
19727;SDS011;10015;52.530;13.390;2023-05-29T04:54:54;4.73;;;2.23;;
19727;SDS011;10015;52.530;13.390;2023-05-29T04:57:22;5.93;;;2.80;;
19727;SDS011;10015;52.530;13.390;2023-05-29T04:59:48;6.90;;;2.90;;
19727;SDS011;10015;52.530;13.390;2023-05-29T05:02:14;7.77;;;3.23;;
19727;SDS011;10015;52.530;13.390;2023-05-29T05:04:40;7.13;;;3.07;;
19727;SDS011;10015;52.530;13.390;2023-05-29T05:07:08;8.60;;;2.90;;
19727;SDS011;10015;52.530;13.390;2023-05-29T05:09:35;5.63;;;2.87;;
19727;SDS011;10015;52.530;13.390;2023-05-29T05:12:02;4.97;;;2.60;;
19727;SDS011;10015;52.530;13.390;2023-05-29T05:14:28;6.17;;;2.67;;
19727;SDS011;10015;52.530;13.390;2023-05-29T05:16:54;6.53;;;3.00;;
19727;SDS011;10015;52.530;13.390;2023-05-29T05:19:20;9.53;;;2.73;;
19727;SDS011;10015;52.530;13.390;2023-05-29T05:21:46;11.13;;;3.33;;
19727;SDS011;10015;52.530;13.390;2023-05-29T05:24:13;4.77;;;2.70;;
19727;SDS011;10015;52.530;13.390;2023-05-29T05:26:40;4.63;;;2.73;;
19727;SDS011;10015;52.530;13.390;2023-05-29T05:29:06;5.27;;;2.80;;
19727;SDS011;10015;52.530;13.390;2023-05-29T05:31:33;5.47;;;2.30;;
19727;SDS011;10015;52.530;13.390;2023-05-29T05:33:59;4.70;;;2.53;;
19727;SDS011;10015;52.530;13.390;2023-05-29T05:36:25;3.40;;;2.20;;
19727;SDS011;10015;52.530;13.390;2023-05-29T05:39:00;6.00;;;2.83;;
19727;SDS011;10015;52.530;13.390;2023-05-29T05:41:26;7.20;;;3.13;;
19727;SDS011;10015;52.530;13.390;2023-05-29T05:43:53;5.43;;;2.30;;
19727;SDS011;10015;52.530;13.390;2023-05-29T05:46:29;5.50;;;2.50;;
19727;SDS011;10015;52.530;13.390;2023-05-29T05:48:55;4.97;;;2.47;;
19727;SDS011;10015;52.530;13.390;2023-05-29T05:51:26;4.60;;;2.03;;
19727;SDS011;10015;52.530;13.390;2023-05-29T05:53:52;3.40;;;2.00;;
19727;SDS011;10015;52.530;13.390;2023-05-29T05:56:19;6.53;;;2.20;;
19727;SDS011;10015;52.530;13.390;2023-05-29T05:58:45;6.33;;;2.10;;
19727;SDS011;10015;52.530;13.390;2023-05-29T06:01:11;4.33;;;2.53;;
19727;SDS011;10015;52.530;13.390;2023-05-29T06:03:37;4.80;;;2.60;;
19727;SDS011;10015;52.530;13.390;2023-05-29T06:06:07;5.30;;;2.30;;
19727;SDS011;10015;52.530;13.390;2023-05-29T06:08:34;3.47;;;2.03;;
19727;SDS011;10015;52.530;13.390;2023-05-29T06:11:00;4.67;;;2.13;;
19727;SDS011;10015;52.530;13.390;2023-05-29T06:13:27;4.23;;;2.13;;
19727;SDS011;10015;52.530;13.390;2023-05-29T06:15:58;5.73;;;1.80;;
19727;SDS011;10015;52.530;13.390;2023-05-29T06:18:25;4.93;;;2.17;;
19727;SDS011;10015;52.530;13.390;2023-05-29T06:20:51;3.67;;;1.90;;
19727;SDS011;10015;52.530;13.390;2023-05-29T06:23:17;5.50;;;2.17;;
19727;SDS011;10015;52.530;13.390;2023-05-29T06:25:43;2.40;;;1.70;;
19727;SDS011;10015;52.530;13.390;2023-05-29T06:28:09;5.03;;;1.90;;
19727;SDS011;10015;52.530;13.390;2023-05-29T06:30:35;2.27;;;1.60;;
19727;SDS011;10015;52.530;13.390;2023-05-29T06:33:05;4.60;;;1.90;;
19727;SDS011;10015;52.530;13.390;2023-05-29T06:35:31;3.10;;;2.03;;
19727;SDS011;10015;52.530;13.390;2023-05-29T06:37:58;2.63;;;1.67;;
19727;SDS011;10015;52.530;13.390;2023-05-29T06:40:30;6.90;;;1.97;;
19727;SDS011;10015;52.530;13.390;2023-05-29T06:42:56;3.07;;;2.07;;
19727;SDS011;10015;52.530;13.390;2023-05-29T06:45:35;2.90;;;1.60;;
19727;SDS011;10015;52.530;13.390;2023-05-29T06:48:01;3.17;;;1.77;;
19727;SDS011;10015;52.530;13.390;2023-05-29T06:50:27;4.67;;;1.70;;
19727;SDS011;10015;52.530;13.390;2023-05-29T06:52:57;3.50;;;2.00;;
19727;SDS011;10015;52.530;13.390;2023-05-29T06:55:29;3.38;;;1.83;;
19727;SDS011;10015;52.530;13.390;2023-05-29T06:57:57;4.07;;;2.00;;
19727;SDS011;10015;52.530;13.390;2023-05-29T07:00:24;5.00;;;1.90;;
19727;SDS011;10015;52.530;13.390;2023-05-29T07:03:28;4.03;;;1.90;;
19727;SDS011;10015;52.530;13.390;2023-05-29T07:05:54;3.40;;;1.90;;
19727;SDS011;10015;52.530;13.390;2023-05-29T07:08:20;4.28;;;2.15;;
19727;SDS011;10015;52.530;13.390;2023-05-29T07:10:46;4.18;;;2.10;;
19727;SDS011;10015;52.530;13.390;2023-05-29T07:13:14;5.60;;;1.85;;
19727;SDS011;10015;52.530;13.390;2023-05-29T07:15:41;5.47;;;2.13;;
19727;SDS011;10015;52.530;13.390;2023-05-29T07:18:08;3.72;;;2.00;;
19727;SDS011;10015;52.530;13.390;2023-05-29T07:20:34;3.47;;;1.90;;
19727;SDS011;10015;52.530;13.390;2023-05-29T07:23:01;4.05;;;1.80;;
19727;SDS011;10015;52.530;13.390;2023-05-29T07:25:27;3.80;;;1.65;;
19727;SDS011;10015;52.530;13.390;2023-05-29T07:27:53;2.75;;;1.98;;
19727;SDS011;10015;52.530;13.390;2023-05-29T07:30:19;3.38;;;1.80;;
19727;SDS011;10015;52.530;13.390;2023-05-29T07:32:46;2.97;;;1.80;;
19727;SDS011;10015;52.530;13.390;2023-05-29T07:35:12;2.15;;;1.42;;
19727;SDS011;10015;52.530;13.390;2023-05-29T07:37:38;4.75;;;1.75;;
19727;SDS011;10015;52.530;13.390;2023-05-29T07:40:04;2.75;;;1.70;;
19727;SDS011;10015;52.530;13.390;2023-05-29T07:42:51;4.22;;;1.65;;
19727;SDS011;10015;52.530;13.390;2023-05-29T07:45:18;3.45;;;1.80;;
19727;SDS011;10015;52.530;13.390;2023-05-29T07:47:44;3.72;;;1.80;;
19727;SDS011;10015;52.530;13.390;2023-05-29T07:50:11;3.22;;;1.48;;
19727;SDS011;10015;52.530;13.390;2023-05-29T07:52:38;4.13;;;1.77;;
19727;SDS011;10015;52.530;13.390;2023-05-29T07:55:04;2.30;;;1.75;;
19727;SDS011;10015;52.530;13.390;2023-05-29T07:57:30;3.38;;;1.73;;
19727;SDS011;10015;52.530;13.390;2023-05-29T07:59:58;4.53;;;1.90;;
19727;SDS011;10015;52.530;13.390;2023-05-29T08:02:24;5.13;;;2.30;;
19727;SDS011;10015;52.530;13.390;2023-05-29T08:05:10;3.42;;;1.75;;
19727;SDS011;10015;52.530;13.390;2023-05-29T08:07:36;4.35;;;1.88;;
19727;SDS011;10015;52.530;13.390;2023-05-29T08:10:02;4.35;;;1.60;;
19727;SDS011;10015;52.530;13.390;2023-05-29T08:12:30;3.53;;;1.88;;
19727;SDS011;10015;52.530;13.390;2023-05-29T08:14:59;2.58;;;1.70;;
19727;SDS011;10015;52.530;13.390;2023-05-29T08:17:24;3.95;;;2.17;;
19727;SDS011;10015;52.530;13.390;2023-05-29T08:19:50;4.82;;;2.15;;
19727;SDS011;10015;52.530;13.390;2023-05-29T08:22:16;6.55;;;2.25;;
19727;SDS011;10015;52.530;13.390;2023-05-29T08:24:42;2.53;;;1.85;;
19727;SDS011;10015;52.530;13.390;2023-05-29T08:27:08;2.17;;;1.73;;
19727;SDS011;10015;52.530;13.390;2023-05-29T08:29:34;2.30;;;1.77;;
19727;SDS011;10015;52.530;13.390;2023-05-29T08:32:02;4.60;;;2.28;;
19727;SDS011;10015;52.530;13.390;2023-05-29T08:34:28;4.38;;;1.95;;
19727;SDS011;10015;52.530;13.390;2023-05-29T08:36:54;3.83;;;1.77;;
19727;SDS011;10015;52.530;13.390;2023-05-29T08:39:20;3.28;;;2.00;;
19727;SDS011;10015;52.530;13.390;2023-05-29T08:42:04;3.60;;;1.80;;
19727;SDS011;10015;52.530;13.390;2023-05-29T08:44:32;4.10;;;1.65;;
19727;SDS011;10015;52.530;13.390;2023-05-29T08:47:02;3.63;;;2.00;;
19727;SDS011;10015;52.530;13.390;2023-05-29T08:49:33;3.28;;;2.13;;
19727;SDS011;10015;52.530;13.390;2023-05-29T08:52:11;3.90;;;1.90;;
19727;SDS011;10015;52.530;13.390;2023-05-29T08:54:40;3.38;;;1.90;;
19727;SDS011;10015;52.530;13.390;2023-05-29T08:57:07;4.88;;;2.15;;
19727;SDS011;10015;52.530;13.390;2023-05-29T08:59:33;3.75;;;2.08;;
19727;SDS011;10015;52.530;13.390;2023-05-29T09:02:02;3.65;;;2.00;;
19727;SDS011;10015;52.530;13.390;2023-05-29T09:04:28;4.20;;;1.92;;
19727;SDS011;10015;52.530;13.390;2023-05-29T09:06:57;3.13;;;1.88;;
19727;SDS011;10015;52.530;13.390;2023-05-29T09:09:24;3.92;;;2.00;;
19727;SDS011;10015;52.530;13.390;2023-05-29T09:11:55;3.08;;;2.03;;
19727;SDS011;10015;52.530;13.390;2023-05-29T09:14:34;3.65;;;2.10;;
19727;SDS011;10015;52.530;13.390;2023-05-29T09:17:06;3.47;;;2.08;;
19727;SDS011;10015;52.530;13.390;2023-05-29T09:19:33;4.43;;;1.90;;
19727;SDS011;10015;52.530;13.390;2023-05-29T09:22:01;4.80;;;2.08;;
19727;SDS011;10015;52.530;13.390;2023-05-29T09:24:32;2.92;;;2.03;;
19727;SDS011;10015;52.530;13.390;2023-05-29T09:26:59;3.10;;;2.22;;
19727;SDS011;10015;52.530;13.390;2023-05-29T09:29:47;2.45;;;1.90;;
19727;SDS011;10015;52.530;13.390;2023-05-29T09:32:16;5.43;;;2.00;;
19727;SDS011;10015;52.530;13.390;2023-05-29T09:34:43;4.55;;;2.03;;
19727;SDS011;10015;52.530;13.390;2023-05-29T09:37:10;4.53;;;2.33;;
19727;SDS011;10015;52.530;13.390;2023-05-29T09:42:07;2.85;;;1.90;;
19727;SDS011;10015;52.530;13.390;2023-05-29T09:44:35;3.70;;;2.00;;
19727;SDS011;10015;52.530;13.390;2023-05-29T09:47:01;4.65;;;2.13;;
19727;SDS011;10015;52.530;13.390;2023-05-29T09:49:27;4.68;;;2.10;;
19727;SDS011;10015;52.530;13.390;2023-05-29T09:51:56;3.00;;;2.38;;
19727;SDS011;10015;52.530;13.390;2023-05-29T09:54:26;4.88;;;2.63;;
19727;SDS011;10015;52.530;13.390;2023-05-29T09:56:56;4.15;;;2.20;;
19727;SDS011;10015;52.530;13.390;2023-05-29T09:59:24;4.43;;;2.25;;
19727;SDS011;10015;52.530;13.390;2023-05-29T10:01:55;4.90;;;2.47;;
19727;SDS011;10015;52.530;13.390;2023-05-29T10:04:30;4.55;;;2.17;;
19727;SDS011;10015;52.530;13.390;2023-05-29T10:06:57;4.20;;;2.20;;
19727;SDS011;10015;52.530;13.390;2023-05-29T10:09:29;4.22;;;2.30;;
19727;SDS011;10015;52.530;13.390;2023-05-29T10:11:56;4.80;;;2.30;;
19727;SDS011;10015;52.530;13.390;2023-05-29T10:14:27;3.65;;;2.15;;
19727;SDS011;10015;52.530;13.390;2023-05-29T10:16:56;7.45;;;2.40;;
19727;SDS011;10015;52.530;13.390;2023-05-29T10:19:27;3.25;;;2.08;;
19727;SDS011;10015;52.530;13.390;2023-05-29T10:21:55;6.32;;;2.33;;
19727;SDS011;10015;52.530;13.390;2023-05-29T10:24:22;4.97;;;2.40;;
19727;SDS011;10015;52.530;13.390;2023-05-29T10:26:49;3.10;;;2.20;;
19727;SDS011;10015;52.530;13.390;2023-05-29T10:40:05;3.17;;;2.30;;
19727;SDS011;10015;52.530;13.390;2023-05-29T10:42:44;3.50;;;2.08;;
19727;SDS011;10015;52.530;13.390;2023-05-29T10:45:56;6.65;;;2.42;;
19727;SDS011;10015;52.530;13.390;2023-05-29T10:48:40;5.22;;;2.20;;
19727;SDS011;10015;52.530;13.390;2023-05-29T10:50:49;3.42;;;2.10;;
19727;SDS011;10015;52.530;13.390;2023-05-29T10:53:16;3.28;;;2.17;;
19727;SDS011;10015;52.530;13.390;2023-05-29T10:55:44;5.38;;;2.50;;
19727;SDS011;10015;52.530;13.390;2023-05-29T11:00:48;3.75;;;2.42;;
19727;SDS011;10015;52.530;13.390;2023-05-29T11:03:15;3.40;;;2.38;;
19727;SDS011;10015;52.530;13.390;2023-05-29T11:11:32;5.93;;;2.10;;
19727;SDS011;10015;52.530;13.390;2023-05-29T11:14:05;5.03;;;2.58;;
19727;SDS011;10015;52.530;13.390;2023-05-29T11:18:58;4.60;;;2.08;;
19727;SDS011;10015;52.530;13.390;2023-05-29T11:21:49;5.00;;;2.17;;
19727;SDS011;10015;52.530;13.390;2023-05-29T11:24:47;3.55;;;2.20;;
19727;SDS011;10015;52.530;13.390;2023-05-29T11:27:15;2.83;;;1.92;;
19727;SDS011;10015;52.530;13.390;2023-05-29T11:29:41;2.85;;;1.63;;
19727;SDS011;10015;52.530;13.390;2023-05-29T11:32:08;3.30;;;2.22;;
19727;SDS011;10015;52.530;13.390;2023-05-29T11:34:40;4.70;;;2.20;;
19727;SDS011;10015;52.530;13.390;2023-05-29T11:37:07;3.80;;;2.10;;
19727;SDS011;10015;52.530;13.390;2023-05-29T11:39:37;4.57;;;2.22;;
19727;SDS011;10015;52.530;13.390;2023-05-29T11:42:03;5.93;;;2.30;;
19727;SDS011;10015;52.530;13.390;2023-05-29T11:44:30;4.60;;;2.08;;
19727;SDS011;10015;52.530;13.390;2023-05-29T11:47:06;3.15;;;2.08;;
19727;SDS011;10015;52.530;13.390;2023-05-29T11:49:33;4.15;;;1.90;;
19727;SDS011;10015;52.530;13.390;2023-05-29T11:54:33;3.83;;;2.15;;
19727;SDS011;10015;52.530;13.390;2023-05-29T11:57:00;3.58;;;2.10;;
19727;SDS011;10015;52.530;13.390;2023-05-29T11:59:30;4.13;;;2.20;;
19727;SDS011;10015;52.530;13.390;2023-05-29T12:01:57;5.30;;;2.00;;
19727;SDS011;10015;52.530;13.390;2023-05-29T12:04:23;4.47;;;2.30;;
19727;SDS011;10015;52.530;13.390;2023-05-29T12:06:48;4.35;;;2.05;;
19727;SDS011;10015;52.530;13.390;2023-05-29T12:09:24;2.80;;;2.08;;
19727;SDS011;10015;52.530;13.390;2023-05-29T12:11:51;4.90;;;2.30;;
19727;SDS011;10015;52.530;13.390;2023-05-29T12:14:17;3.20;;;2.15;;
19727;SDS011;10015;52.530;13.390;2023-05-29T12:16:43;3.30;;;2.10;;
19727;SDS011;10015;52.530;13.390;2023-05-29T12:19:09;5.43;;;2.08;;
19727;SDS011;10015;52.530;13.390;2023-05-29T12:21:35;4.63;;;2.42;;
19727;SDS011;10015;52.530;13.390;2023-05-29T12:24:07;6.10;;;2.25;;
19727;SDS011;10015;52.530;13.390;2023-05-29T12:26:33;4.60;;;2.13;;
19727;SDS011;10015;52.530;13.390;2023-05-29T12:29:02;7.63;;;2.10;;
19727;SDS011;10015;52.530;13.390;2023-05-29T12:31:30;5.43;;;2.30;;
19727;SDS011;10015;52.530;13.390;2023-05-29T12:34:29;4.25;;;2.10;;
19727;SDS011;10015;52.530;13.390;2023-05-29T12:36:49;4.60;;;2.17;;
19727;SDS011;10015;52.530;13.390;2023-05-29T12:39:14;4.28;;;2.25;;
19727;SDS011;10015;52.530;13.390;2023-05-29T12:41:40;3.58;;;2.13;;
19727;SDS011;10015;52.530;13.390;2023-05-29T12:44:06;5.05;;;2.13;;
19727;SDS011;10015;52.530;13.390;2023-05-29T12:46:37;3.00;;;1.90;;
19727;SDS011;10015;52.530;13.390;2023-05-29T12:49:17;3.92;;;2.00;;
19727;SDS011;10015;52.530;13.390;2023-05-29T12:51:46;3.38;;;2.20;;
19727;SDS011;10015;52.530;13.390;2023-05-29T12:54:13;4.50;;;2.15;;
19727;SDS011;10015;52.530;13.390;2023-05-29T12:56:40;4.78;;;1.95;;
19727;SDS011;10015;52.530;13.390;2023-05-29T12:59:07;5.57;;;2.10;;
19727;SDS011;10015;52.530;13.390;2023-05-29T13:01:34;4.97;;;2.30;;
19727;SDS011;10015;52.530;13.390;2023-05-29T13:04:01;3.47;;;2.13;;
19727;SDS011;10015;52.530;13.390;2023-05-29T13:06:27;5.20;;;2.80;;
19727;SDS011;10015;52.530;13.390;2023-05-29T13:08:53;4.97;;;2.10;;
19727;SDS011;10015;52.530;13.390;2023-05-29T13:11:19;6.80;;;2.38;;
19727;SDS011;10015;52.530;13.390;2023-05-29T13:13:45;8.40;;;2.42;;
19727;SDS011;10015;52.530;13.390;2023-05-29T13:16:12;6.30;;;2.30;;
19727;SDS011;10015;52.530;13.390;2023-05-29T13:18:37;3.50;;;1.95;;
19727;SDS011;10015;52.530;13.390;2023-05-29T13:21:03;4.10;;;2.28;;
19727;SDS011;10015;52.530;13.390;2023-05-29T13:23:29;4.88;;;2.28;;
19727;SDS011;10015;52.530;13.390;2023-05-29T13:25:55;4.50;;;1.95;;
19727;SDS011;10015;52.530;13.390;2023-05-29T13:28:21;3.63;;;1.95;;
19727;SDS011;10015;52.530;13.390;2023-05-29T13:30:49;4.00;;;2.00;;
19727;SDS011;10015;52.530;13.390;2023-05-29T13:33:15;4.45;;;2.10;;
19727;SDS011;10015;52.530;13.390;2023-05-29T13:35:41;7.25;;;2.50;;
19727;SDS011;10015;52.530;13.390;2023-05-29T13:38:07;5.13;;;2.33;;
19727;SDS011;10015;52.530;13.390;2023-05-29T13:40:32;4.97;;;1.95;;
19727;SDS011;10015;52.530;13.390;2023-05-29T13:42:58;4.35;;;2.17;;
19727;SDS011;10015;52.530;13.390;2023-05-29T13:45:24;5.38;;;2.35;;
19727;SDS011;10015;52.530;13.390;2023-05-29T13:47:53;6.30;;;1.92;;
19727;SDS011;10015;52.530;13.390;2023-05-29T13:50:20;3.47;;;2.15;;
19727;SDS011;10015;52.530;13.390;2023-05-29T13:52:48;6.43;;;2.10;;
19727;SDS011;10015;52.530;13.390;2023-05-29T13:55:14;5.50;;;2.10;;
19727;SDS011;10015;52.530;13.390;2023-05-29T13:57:40;2.28;;;1.55;;
19727;SDS011;10015;52.530;13.390;2023-05-29T14:00:09;6.68;;;2.35;;
19727;SDS011;10015;52.530;13.390;2023-05-29T14:02:36;4.82;;;2.00;;
19727;SDS011;10015;52.530;13.390;2023-05-29T14:05:02;4.70;;;2.30;;
19727;SDS011;10015;52.530;13.390;2023-05-29T14:07:28;4.85;;;1.95;;
19727;SDS011;10015;52.530;13.390;2023-05-29T14:09:54;4.70;;;2.10;;
19727;SDS011;10015;52.530;13.390;2023-05-29T14:12:20;4.03;;;1.70;;
19727;SDS011;10015;52.530;13.390;2023-05-29T14:14:46;5.43;;;2.22;;
19727;SDS011;10015;52.530;13.390;2023-05-29T14:17:13;4.88;;;2.00;;
19727;SDS011;10015;52.530;13.390;2023-05-29T14:19:40;4.57;;;2.50;;
19727;SDS011;10015;52.530;13.390;2023-05-29T14:22:06;4.88;;;2.10;;
19727;SDS011;10015;52.530;13.390;2023-05-29T14:24:32;4.68;;;1.90;;
19727;SDS011;10015;52.530;13.390;2023-05-29T14:26:58;5.72;;;1.83;;
19727;SDS011;10015;52.530;13.390;2023-05-29T14:29:24;4.22;;;1.90;;
19727;SDS011;10015;52.530;13.390;2023-05-29T14:31:51;5.25;;;2.15;;
19727;SDS011;10015;52.530;13.390;2023-05-29T14:34:17;4.15;;;2.10;;
19727;SDS011;10015;52.530;13.390;2023-05-29T14:36:43;3.95;;;2.10;;
19727;SDS011;10015;52.530;13.390;2023-05-29T14:39:09;5.32;;;1.83;;
19727;SDS011;10015;52.530;13.390;2023-05-29T14:41:36;4.38;;;1.88;;
19727;SDS011;10015;52.530;13.390;2023-05-29T14:44:03;5.63;;;2.20;;
19727;SDS011;10015;52.530;13.390;2023-05-29T14:46:28;5.97;;;2.20;;
19727;SDS011;10015;52.530;13.390;2023-05-29T14:49:00;6.47;;;2.13;;
19727;SDS011;10015;52.530;13.390;2023-05-29T14:51:26;5.40;;;2.15;;
19727;SDS011;10015;52.530;13.390;2023-05-29T14:53:53;5.18;;;2.05;;
19727;SDS011;10015;52.530;13.390;2023-05-29T14:56:19;7.15;;;1.98;;
19727;SDS011;10015;52.530;13.390;2023-05-29T14:58:45;4.55;;;2.25;;
19727;SDS011;10015;52.530;13.390;2023-05-29T15:01:13;5.38;;;2.35;;
19727;SDS011;10015;52.530;13.390;2023-05-29T15:03:43;3.40;;;1.75;;
19727;SDS011;10015;52.530;13.390;2023-05-29T15:06:09;4.07;;;1.75;;
19727;SDS011;10015;52.530;13.390;2023-05-29T15:08:39;6.68;;;1.90;;
19727;SDS011;10015;52.530;13.390;2023-05-29T15:11:08;4.53;;;1.73;;
19727;SDS011;10015;52.530;13.390;2023-05-29T15:13:34;5.88;;;2.10;;
19727;SDS011;10015;52.530;13.390;2023-05-29T15:16:01;3.88;;;1.90;;
19727;SDS011;10015;52.530;13.390;2023-05-29T15:18:32;4.45;;;1.80;;